Time;durP1;ratioP1;P1;durP2;ratioP2;P2;SDS_P1;SDS_P2;PMS_P1;PMS_P2;Temp;Humidity;BMP_temperature;BMP_pressure;BME280_temperature;BME280_humidity;BME280_pressure;Samples;Min_cycle;Max_cycle;Signal;HPM_P1;HPM_P2
2023/03/09 00:00:10;;;;;;;37.03;14.35;;;;;;;-146.27;100.00;48491.22;5089780;28;20030;-73
2023/03/09 00:02:35;;;;;;;40.47;16.48;;;;;;;-146.27;100.00;48435.44;5086844;28;20031;-72
2023/03/09 00:05:01;;;;;;;40.75;16.42;;;;;;;-146.27;100.00;48435.44;5086475;28;20021;-72
2023/03/09 00:07:30;;;;;;;42.15;16.92;;;;;;;-146.27;100.00;48445.41;5092181;28;20496;-73
2023/03/09 00:09:56;;;;;;;35.53;15.10;;;;;;;-146.27;100.00;48443.41;5087026;28;20024;-73
2023/03/09 00:12:22;;;;;;;40.58;16.10;;;;;;;-146.27;100.00;48395.59;5088522;28;20047;-73
2023/03/09 00:14:52;;;;;;;38.42;15.00;;;;;;;-146.27;100.00;48429.47;5086816;28;20379;-71
2023/03/09 00:17:17;;;;;;;40.60;15.82;;;;;;;-146.27;100.00;48405.56;5084224;28;20069;-72
2023/03/09 00:19:43;;;;;;;38.03;15.05;;;;;;;-146.27;100.00;48427.47;5092654;28;20032;-72
2023/03/09 00:22:08;;;;;;;34.60;14.23;;;;;;;-146.27;100.00;48419.50;5091960;28;20055;-71
2023/03/09 00:24:34;;;;;;;36.08;15.23;;;;;;;-146.27;100.00;48435.44;5092392;28;20047;-73
2023/03/09 00:27:01;;;;;;;38.10;15.85;;;;;;;-146.27;100.00;48439.41;5090037;28;20060;-73
2023/03/09 00:29:29;;;;;;;37.90;15.68;;;;;;;-146.27;100.00;48459.34;5089646;28;20511;-72
2023/03/09 00:31:56;;;;;;;36.53;16.33;;;;;;;-146.27;100.00;48441.41;5089986;28;20027;-72
2023/03/09 00:34:22;;;;;;;43.35;15.60;;;;;;;-146.27;100.00;48423.50;5080290;28;20349;-73
2023/03/09 00:36:47;;;;;;;39.08;14.82;;;;;;;-146.27;100.00;48417.50;5089176;28;20062;-73
2023/03/09 00:39:14;;;;;;;36.80;14.25;;;;;;;-146.27;100.00;48389.63;5075147;28;20024;-72
2023/03/09 00:41:40;;;;;;;35.00;14.98;;;;;;;-146.27;100.00;48413.53;5086142;28;20028;-72
2023/03/09 00:44:06;;;;;;;39.75;14.98;;;;;;;-146.27;100.00;48427.47;5088220;28;20039;-72
2023/03/09 00:46:33;;;;;;;37.60;14.95;;;;;;;-146.27;100.00;48425.47;5090643;28;20156;-73
2023/03/09 00:48:58;;;;;;;43.22;15.50;;;;;;;-146.27;100.00;48379.66;5082391;28;20028;-72
2023/03/09 00:51:25;;;;;;;40.35;16.23;;;;;;;-146.27;100.00;48395.59;5090408;28;20123;-73
2023/03/09 00:53:50;;;;;;;36.70;15.65;;;;;;;-146.27;100.00;48441.41;5089306;28;20024;-73
2023/03/09 00:56:19;;;;;;;40.63;14.65;;;;;;;-146.27;100.00;48425.47;5090307;28;20102;-72
2023/03/09 00:58:44;;;;;;;35.35;15.25;;;;;;;-146.27;100.00;48427.47;5080583;28;20092;-71
2023/03/09 01:01:13;;;;;;;40.70;15.85;;;;;;;-146.27;100.00;48415.53;5082964;28;20033;-72
2023/03/09 01:03:39;;;;;;;35.83;14.27;;;;;;;-146.27;100.00;48389.63;5084648;28;20038;-72
2023/03/09 01:06:05;;;;;;;38.47;14.15;;;;;;;-146.27;100.00;48443.41;5089357;28;20573;-72
2023/03/09 01:08:32;;;;;;;33.92;13.15;;;;;;;-146.27;100.00;48427.47;5084091;28;20038;-72
2023/03/09 01:10:58;;;;;;;30.65;11.98;;;;;;;-146.27;100.00;48417.50;5084784;28;20054;-72
2023/03/09 01:13:23;;;;;;;26.92;12.73;;;;;;;-146.27;100.00;48437.44;5091160;28;20028;-72
2023/03/09 01:15:49;;;;;;;28.95;11.27;;;;;;;-146.27;100.00;48429.47;5089103;28;20100;-73
2023/03/09 01:18:14;;;;;;;28.13;11.52;;;;;;;-146.27;100.00;48433.44;5079685;28;20063;-72
2023/03/09 01:20:40;;;;;;;27.98;10.73;;;;;;;-146.27;100.00;48425.47;5087536;28;20028;-72
2023/03/09 01:23:05;;;;;;;26.67;11.25;;;;;;;-146.27;100.00;48441.41;5091900;28;20050;-72
2023/03/09 01:25:31;;;;;;;26.70;10.23;;;;;;;-146.27;100.00;48423.50;5091077;28;20051;-72
2023/03/09 01:27:56;;;;;;;28.35;11.88;;;;;;;-146.27;100.00;48459.34;5084499;28;20048;-72
2023/03/09 01:30:22;;;;;;;26.40;11.20;;;;;;;-146.27;100.00;48425.47;5085228;28;20043;-73
2023/03/09 01:32:47;;;;;;;26.80;11.90;;;;;;;-146.27;100.00;48411.53;5082741;28;20421;-72
2023/03/09 01:35:13;;;;;;;27.20;11.07;;;;;;;-146.27;100.00;48433.44;5081441;28;20049;-72
2023/03/09 01:37:38;;;;;;;21.48;10.48;;;;;;;-146.27;100.00;48435.44;5090168;28;20044;-72
2023/03/09 01:40:06;;;;;;;25.45;9.88;;;;;;;-146.27;100.00;48413.53;5091286;28;20024;-73
2023/03/09 01:42:32;;;;;;;21.35;9.88;;;;;;;-146.27;100.00;48441.41;5086374;28;20057;-72
2023/03/09 01:45:19;;;;;;;25.35;11.20;;;;;;;-146.27;100.00;48443.41;5082534;28;20028;-72
2023/03/09 01:47:48;;;;;;;18.05;9.13;;;;;;;-146.27;100.00;48419.50;5082611;28;20051;-72
2023/03/09 01:50:16;;;;;;;23.20;9.80;;;;;;;-146.27;100.00;48407.56;5087689;28;20733;-73
2023/03/09 01:52:44;;;;;;;21.58;9.77;;;;;;;-146.27;100.00;48437.44;5090888;28;20020;-72
2023/03/09 01:55:12;;;;;;;17.52;9.27;;;;;;;-146.27;100.00;48423.50;5092897;28;20032;-73
2023/03/09 01:57:42;;;;;;;19.08;9.63;;;;;;;-146.27;100.00;48407.56;5086302;28;20055;-72
2023/03/09 02:00:13;;;;;;;20.83;9.57;;;;;;;-146.27;100.00;48401.56;5091085;28;20032;-72
2023/03/09 02:02:40;;;;;;;21.63;10.60;;;;;;;-146.27;100.00;48399.59;5084522;28;20028;-72
2023/03/09 02:05:13;;;;;;;22.58;9.30;;;;;;;-146.27;100.00;48415.53;5088734;28;20031;-73
2023/03/09 02:07:42;;;;;;;21.27;10.00;;;;;;;-146.27;100.00;48443.41;5083224;28;20049;-73
2023/03/09 02:10:17;;;;;;;16.00;9.43;;;;;;;-146.27;100.00;48419.50;5094401;28;20023;-72
2023/03/09 02:12:52;;;;;;;15.93;8.23;;;;;;;-146.27;100.00;48411.53;5087457;28;20031;-72
2023/03/09 02:15:18;;;;;;;18.60;7.93;;;;;;;-146.27;100.00;48411.53;5089550;28;20044;-72
2023/03/09 02:17:44;;;;;;;16.27;7.90;;;;;;;-146.27;100.00;48473.28;5084599;28;20108;-73
2023/03/09 02:20:19;;;;;;;17.60;8.55;;;;;;;-146.27;100.00;48417.50;5081829;28;20115;-73
2023/03/09 02:22:45;;;;;;;21.77;8.68;;;;;;;-146.27;100.00;48439.41;5087014;28;20040;-72
2023/03/09 02:25:23;;;;;;;13.10;7.65;;;;;;;-146.27;100.00;48411.53;5090394;28;20463;-72
2023/03/09 02:27:50;;;;;;;15.25;8.18;;;;;;;-146.27;100.00;48439.41;5093636;28;20059;-72
2023/03/09 02:30:16;;;;;;;18.08;8.25;;;;;;;-146.27;100.00;48421.50;5092731;28;20071;-73
2023/03/09 02:32:41;;;;;;;16.65;8.32;;;;;;;-146.27;100.00;48427.47;5090784;28;20055;-72
2023/03/09 02:35:09;;;;;;;19.23;8.00;;;;;;;-146.27;100.00;48419.50;5085875;28;20107;-73
2023/03/09 02:37:37;;;;;;;17.85;8.48;;;;;;;-146.27;100.00;48435.44;5086324;28;20032;-72
2023/03/09 02:40:15;;;;;;;16.05;8.38;;;;;;;-146.27;100.00;48381.66;5089580;28;20028;-72
2023/03/09 02:42:43;;;;;;;14.98;7.70;;;;;;;-146.27;100.00;48457.34;5087816;28;20545;-73
2023/03/09 02:45:11;;;;;;;15.80;7.72;;;;;;;-146.27;100.00;48423.50;5086020;28;20095;-72
2023/03/09 02:47:38;;;;;;;15.70;7.30;;;;;;;-146.27;100.00;48405.56;5093444;28;20034;-72
2023/03/09 02:50:06;;;;;;;15.80;8.00;;;;;;;-146.27;100.00;48403.56;5093598;28;20024;-73
2023/03/09 02:52:31;;;;;;;15.85;7.75;;;;;;;-146.27;100.00;48415.53;5094424;28;20043;-72
2023/03/09 02:54:57;;;;;;;15.60;7.45;;;;;;;-146.27;100.00;48439.41;5090487;28;20445;-72
2023/03/09 02:57:22;;;;;;;16.80;7.97;;;;;;;-146.27;100.00;48427.47;5088967;28;20024;-72
2023/03/09 02:59:47;;;;;;;19.40;8.32;;;;;;;-146.27;100.00;48407.56;5092133;28;20028;-72
2023/03/09 03:02:13;;;;;;;18.40;7.80;;;;;;;-146.27;100.00;48411.53;5091104;28;20024;-72
2023/03/09 03:04:39;;;;;;;14.65;7.30;;;;;;;-146.27;100.00;48405.56;5094436;28;20476;-73
2023/03/09 03:07:04;;;;;;;18.17;7.75;;;;;;;-146.27;100.00;48423.50;5081656;28;20058;-72
2023/03/09 03:09:30;;;;;;;16.80;8.63;;;;;;;-146.27;100.00;48417.50;5089796;28;20035;-72
2023/03/09 03:11:56;;;;;;;18.90;8.40;;;;;;;-146.27;100.00;48411.53;5090363;28;20069;-73
2023/03/09 03:14:21;;;;;;;14.32;7.20;;;;;;;-146.27;100.00;48423.50;5093530;28;20024;-72
2023/03/09 03:16:47;;;;;;;15.75;8.00;;;;;;;-146.27;100.00;48447.38;5091476;28;20073;-74
2023/03/09 03:19:12;;;;;;;16.75;7.57;;;;;;;-146.27;100.00;48383.66;5091519;28;20028;-73
2023/03/09 03:21:38;;;;;;;18.02;8.45;;;;;;;-146.27;100.00;48409.53;5091104;28;20118;-72
2023/03/09 03:24:03;;;;;;;21.17;8.45;;;;;;;-146.27;100.00;48415.53;5094521;28;20055;-72
2023/03/09 03:26:29;;;;;;;14.13;7.35;;;;;;;-146.27;100.00;48455.34;5088814;28;20163;-72
2023/03/09 03:28:54;;;;;;;14.80;7.28;;;;;;;-146.27;100.00;48423.50;5093902;28;20084;-71
2023/03/09 03:31:20;;;;;;;15.93;7.38;;;;;;;-146.27;100.00;48407.56;5090266;28;20115;-72
2023/03/09 03:33:45;;;;;;;16.58;8.13;;;;;;;-146.27;100.00;48395.59;5087924;28;20024;-72
2023/03/09 03:36:10;;;;;;;11.68;6.30;;;;;;;-146.27;100.00;48383.66;5089303;28;20023;-73
2023/03/09 03:38:36;;;;;;;13.75;7.50;;;;;;;-146.27;100.00;48417.50;5082538;28;20028;-73
2023/03/09 03:41:02;;;;;;;15.75;8.50;;;;;;;-146.27;100.00;48407.56;5091880;28;20028;-72
2023/03/09 03:43:28;;;;;;;15.40;7.55;;;;;;;-146.27;100.00;48459.34;5087290;28;20483;-71
2023/03/09 03:45:53;;;;;;;16.52;7.65;;;;;;;-146.27;100.00;48401.56;5085516;28;20090;-72
2023/03/09 03:48:18;;;;;;;15.85;8.07;;;;;;;-146.27;100.00;48439.41;5086499;28;20027;-71
2023/03/09 03:50:44;;;;;;;16.95;8.57;;;;;;;-146.27;100.00;48443.41;5089366;28;20554;-72
2023/03/09 03:53:09;;;;;;;17.05;8.02;;;;;;;-146.27;100.00;48401.56;5092749;28;20028;-72
2023/03/09 03:55:35;;;;;;;16.48;7.60;;;;;;;-146.27;100.00;48399.59;5092630;28;20030;-72
2023/03/09 03:58:00;;;;;;;18.63;8.35;;;;;;;-146.27;100.00;48443.41;5090983;28;20065;-73
2023/03/09 04:00:26;;;;;;;15.00;7.10;;;;;;;-146.27;100.00;48405.56;5091801;28;20387;-73
2023/03/09 04:02:52;;;;;;;16.08;8.07;;;;;;;-146.27;100.00;48447.38;5087681;28;20027;-73
2023/03/09 04:05:17;;;;;;;20.02;8.23;;;;;;;-146.27;100.00;48423.50;5089975;28;20020;-73
2023/03/09 04:07:43;;;;;;;14.70;7.90;;;;;;;-146.27;100.00;48417.50;5089325;28;20058;-73
2023/03/09 04:10:09;;;;;;;16.52;7.57;;;;;;;-146.27;100.00;48443.41;5088401;28;20853;-73
2023/03/09 04:12:34;;;;;;;18.33;7.88;;;;;;;-146.27;100.00;48379.66;5084604;28;20032;-73
2023/03/09 04:15:00;;;;;;;17.23;8.23;;;;;;;-146.27;100.00;48399.59;5082469;28;20024;-72
2023/03/09 04:17:25;;;;;;;17.83;8.68;;;;;;;-146.27;100.00;48401.56;5086917;28;20062;-72
2023/03/09 04:19:50;;;;;;;25.15;8.88;;;;;;;-146.27;100.00;48393.63;5091386;28;20452;-71
2023/03/09 04:22:16;;;;;;;17.23;8.27;;;;;;;-146.27;100.00;48423.50;5092714;28;20067;-72
2023/03/09 04:24:41;;;;;;;17.63;8.18;;;;;;;-146.27;100.00;48393.63;5092148;28;20341;-72
2023/03/09 04:27:07;;;;;;;15.73;8.50;;;;;;;-146.27;100.00;48403.56;5090210;28;20395;-72
2023/03/09 04:29:32;;;;;;;19.92;8.60;;;;;;;-146.27;100.00;48427.47;5092950;28;20454;-72
2023/03/09 04:31:57;;;;;;;19.02;8.50;;;;;;;-146.27;100.00;48461.34;5085562;28;20099;-72
2023/03/09 04:34:23;;;;;;;18.90;8.63;;;;;;;-146.27;100.00;48435.44;5085191;28;20479;-72
2023/03/09 04:36:48;;;;;;;20.95;8.13;;;;;;;-146.27;100.00;48395.59;5083801;28;20379;-73
2023/03/09 04:39:13;;;;;;;17.90;8.15;;;;;;;-146.27;100.00;48403.56;5077843;28;20020;-72
2023/03/09 04:41:39;;;;;;;20.38;9.30;;;;;;;-146.27;100.00;48403.56;5078674;28;20063;-72
2023/03/09 04:44:04;;;;;;;17.10;8.85;;;;;;;-146.27;100.00;48451.38;5091044;28;20035;-72
2023/03/09 04:46:29;;;;;;;20.55;8.88;;;;;;;-146.27;100.00;48443.41;5082898;28;20859;-72
2023/03/09 04:48:55;;;;;;;19.40;8.52;;;;;;;-146.27;100.00;48411.53;5085217;28;20020;-72
2023/03/09 04:51:21;;;;;;;18.80;9.15;;;;;;;-146.27;100.00;48441.41;5080528;28;20104;-73
2023/03/09 04:53:47;;;;;;;21.90;9.82;;;;;;;-146.27;100.00;48431.47;5083461;28;20024;-73
2023/03/09 04:56:12;;;;;;;18.83;9.68;;;;;;;-146.27;100.00;48397.59;5082011;28;20369;-72
2023/03/09 04:58:37;;;;;;;21.30;10.32;;;;;;;-146.27;100.00;48421.50;5083265;28;20035;-73
2023/03/09 05:01:03;;;;;;;28.30;10.43;;;;;;;-146.27;100.00;48419.50;5084466;28;20135;-73
2023/03/09 05:03:29;;;;;;;20.77;9.90;;;;;;;-146.27;100.00;48413.53;5086296;28;20050;-72
2023/03/09 05:05:54;;;;;;;25.60;10.10;;;;;;;-146.27;100.00;48415.53;5090717;28;20134;-72
2023/03/09 05:08:20;;;;;;;24.98;10.48;;;;;;;-146.27;100.00;48415.53;5080807;28;20291;-73
2023/03/09 05:10:45;;;;;;;23.30;10.38;;;;;;;-146.27;100.00;48393.63;5088183;28;20487;-72
2023/03/09 05:13:11;;;;;;;26.27;11.05;;;;;;;-146.27;100.00;48429.47;5086316;28;20020;-73
2023/03/09 05:15:40;;;;;;;19.85;9.40;;;;;;;-146.27;100.00;48399.59;5086369;28;20027;-72
2023/03/09 05:18:06;;;;;;;26.48;10.85;;;;;;;-146.27;100.00;48383.66;5088662;28;20422;-72
2023/03/09 05:20:32;;;;;;;23.42;11.35;;;;;;;-146.27;100.00;48415.53;5090616;28;20089;-73
2023/03/09 05:22:58;;;;;;;21.38;10.70;;;;;;;-146.27;100.00;48435.44;5086091;28;20028;-72
2023/03/09 05:25:24;;;;;;;25.38;10.70;;;;;;;-146.27;100.00;48439.41;5084722;28;20031;-71
2023/03/09 05:27:49;;;;;;;25.88;11.07;;;;;;;-146.27;100.00;48473.28;5087459;28;20028;-72
2023/03/09 05:30:15;;;;;;;23.95;11.27;;;;;;;-146.27;100.00;48451.38;5090298;28;20702;-71
2023/03/09 05:32:41;;;;;;;25.25;12.20;;;;;;;-146.27;100.00;48413.53;5082230;28;20028;-72
2023/03/09 05:35:07;;;;;;;28.48;12.55;;;;;;;-146.27;100.00;48407.56;5088515;28;20043;-73
2023/03/09 05:37:33;;;;;;;28.25;12.88;;;;;;;-146.27;100.00;48411.53;5083563;28;20032;-72
2023/03/09 05:39:59;;;;;;;28.38;13.38;;;;;;;-146.27;100.00;48419.50;5084584;28;20070;-73
2023/03/09 05:42:24;;;;;;;27.15;12.32;;;;;;;-146.27;100.00;48393.63;5087157;28;20043;-73
2023/03/09 05:44:50;;;;;;;31.52;13.73;;;;;;;-146.27;100.00;48431.47;5085793;28;20047;-72
2023/03/09 05:47:15;;;;;;;25.20;12.20;;;;;;;-146.27;100.00;48423.50;5083052;28;20499;-73
2023/03/09 05:49:41;;;;;;;31.55;12.70;;;;;;;-146.27;100.00;48463.31;5077986;28;20043;-73
2023/03/09 05:52:06;;;;;;;25.05;12.57;;;;;;;-146.27;100.00;48437.44;5091082;28;20044;-73
2023/03/09 05:54:32;;;;;;;31.17;13.85;;;;;;;-146.27;100.00;48417.50;5091027;28;20085;-73
2023/03/09 05:56:57;;;;;;;29.13;13.13;;;;;;;-146.27;100.00;48391.63;5086180;28;20027;-72
2023/03/09 05:59:23;;;;;;;29.95;12.82;;;;;;;-146.27;100.00;48395.59;5088563;28;20025;-74
2023/03/09 06:01:48;;;;;;;29.10;12.38;;;;;;;-146.27;100.00;48407.56;5084790;28;20046;-73
2023/03/09 06:04:14;;;;;;;30.92;14.00;;;;;;;-146.27;100.00;48409.53;5086681;28;20028;-73
2023/03/09 06:06:39;;;;;;;36.10;12.18;;;;;;;-146.27;100.00;48435.44;5085339;28;20052;-73
2023/03/09 06:09:05;;;;;;;31.40;14.13;;;;;;;-146.27;100.00;48401.56;5091337;28;20019;-73
2023/03/09 06:11:31;;;;;;;29.80;13.77;;;;;;;-146.27;100.00;48425.47;5085242;28;20102;-73
2023/03/09 06:13:57;;;;;;;33.92;14.23;;;;;;;-146.27;100.00;48383.66;5077727;28;20464;-73
2023/03/09 06:16:24;;;;;;;32.55;14.43;;;;;;;-146.27;100.00;48423.50;5079239;28;20035;-73
2023/03/09 06:18:50;;;;;;;31.80;13.93;;;;;;;-146.27;100.00;48399.59;5090030;28;20027;-73
2023/03/09 06:21:16;;;;;;;34.05;14.48;;;;;;;-146.27;100.00;48447.38;5088812;28;20032;-73
2023/03/09 06:23:41;;;;;;;32.60;13.77;;;;;;;-146.27;100.00;48447.38;5090543;28;20024;-73
2023/03/09 06:26:09;;;;;;;33.63;13.35;;;;;;;-146.27;100.00;48407.56;5089242;28;20028;-72
2023/03/09 06:28:35;;;;;;;31.30;13.00;;;;;;;-146.27;100.00;48379.66;5090752;28;20032;-72
2023/03/09 06:31:13;;;;;;;30.38;14.23;;;;;;;-146.27;100.00;48403.56;5079574;28;20039;-72
2023/03/09 06:33:39;;;;;;;28.83;14.35;;;;;;;-146.27;100.00;48399.59;5081499;28;20032;-73
2023/03/09 06:36:05;;;;;;;34.00;14.48;;;;;;;-146.27;100.00;48427.47;5087325;28;20029;-74
2023/03/09 06:38:30;;;;;;;34.47;14.80;;;;;;;-146.27;100.00;48415.53;5080445;28;20024;-75
2023/03/09 06:40:56;;;;;;;36.25;15.55;;;;;;;-146.27;100.00;48427.47;5094067;28;20094;-73
2023/03/09 06:43:22;;;;;;;37.25;15.07;;;;;;;-146.27;100.00;48427.47;5100942;28;20028;-74
2023/03/09 06:45:48;;;;;;;30.35;12.68;;;;;;;-146.27;100.00;48403.56;5093910;28;20039;-73
2023/03/09 06:48:14;;;;;;;37.53;15.10;;;;;;;-146.27;100.00;48389.63;5091161;28;20414;-72
2023/03/09 06:50:40;;;;;;;35.25;14.73;;;;;;;-146.27;100.00;48419.50;5084145;28;20109;-72
2023/03/09 06:53:05;;;;;;;34.63;14.45;;;;;;;-146.27;100.00;48443.41;5102980;28;20028;-72
2023/03/09 06:55:30;;;;;;;34.67;13.77;;;;;;;-146.27;100.00;48407.56;5103383;28;20024;-71
2023/03/09 06:57:56;;;;;;;37.85;14.95;;;;;;;-146.27;100.00;48411.53;5089183;28;20115;-71
2023/03/09 07:00:22;;;;;;;34.72;15.27;;;;;;;-146.27;100.00;48415.53;5082590;28;20035;-73
2023/03/09 07:02:48;;;;;;;34.30;14.77;;;;;;;-146.27;100.00;48415.53;5085197;28;20078;-73
2023/03/09 07:05:14;;;;;;;34.63;15.02;;;;;;;-146.27;100.00;48419.50;5090418;28;20028;-74
2023/03/09 07:07:42;;;;;;;36.63;14.35;;;;;;;-146.27;100.00;48447.38;5088879;28;20059;-72
2023/03/09 07:10:09;;;;;;;33.47;14.73;;;;;;;-146.27;100.00;48409.53;5092284;28;20032;-73
2023/03/09 07:12:34;;;;;;;38.92;15.40;;;;;;;-146.27;100.00;48443.41;5088512;28;20056;-72
2023/03/09 07:15:00;;;;;;;35.00;15.65;;;;;;;-146.27;100.00;48429.47;5087802;28;20056;-73
2023/03/09 07:17:26;;;;;;;37.25;15.95;;;;;;;-146.27;100.00;48387.63;5097988;28;20028;-72
2023/03/09 07:19:54;;;;;;;36.25;15.38;;;;;;;-146.27;100.00;48419.50;5093721;28;20023;-72
2023/03/09 07:22:19;;;;;;;33.28;14.35;;;;;;;-146.27;100.00;48439.41;5088506;28;20118;-72
2023/03/09 07:24:45;;;;;;;33.92;14.43;;;;;;;-146.27;100.00;48407.56;5089871;28;20535;-72
2023/03/09 07:27:10;;;;;;;38.08;15.95;;;;;;;-146.27;100.00;48391.63;5088631;28;20435;-71
2023/03/09 07:29:38;;;;;;;35.33;15.63;;;;;;;-146.27;100.00;48411.53;5090349;28;20063;-71
2023/03/09 07:32:04;;;;;;;30.92;14.68;;;;;;;-146.27;100.00;48399.59;5084083;28;20077;-72
2023/03/09 07:34:32;;;;;;;33.15;14.65;;;;;;;-146.27;100.00;48393.63;5090022;28;20468;-72
2023/03/09 07:36:57;;;;;;;41.60;15.55;;;;;;;-146.27;100.00;48395.59;5086779;28;20050;-72
2023/03/09 07:39:23;;;;;;;35.45;15.65;;;;;;;-146.27;100.00;48455.34;5086500;28;20023;-74
2023/03/09 07:41:48;;;;;;;37.40;15.68;;;;;;;-146.27;100.00;48405.56;5082825;28;20111;-74
2023/03/09 07:44:14;;;;;;;30.67;14.85;;;;;;;-146.27;100.00;48409.53;5080213;28;20074;-75
2023/03/09 07:46:39;;;;;;;32.80;15.32;;;;;;;-146.27;100.00;48411.53;5083641;28;20028;-75
2023/03/09 07:49:05;;;;;;;31.67;13.20;;;;;;;-146.27;100.00;48423.50;5094307;28;20032;-75
2023/03/09 07:51:31;;;;;;;33.33;15.18;;;;;;;-146.27;100.00;48423.50;5088938;28;20020;-75
2023/03/09 07:53:57;;;;;;;33.63;15.23;;;;;;;-146.27;100.00;48421.50;5094252;28;20047;-73
2023/03/09 07:56:22;;;;;;;31.80;15.57;;;;;;;-146.27;100.00;48439.41;5091538;28;20050;-74
2023/03/09 07:58:51;;;;;;;28.80;13.50;;;;;;;-146.27;100.00;48409.53;5074732;28;20025;-75
2023/03/09 08:01:18;;;;;;;31.00;14.05;;;;;;;-146.27;100.00;48447.38;5094186;28;20020;-75
2023/03/09 08:03:45;;;;;;;27.38;14.02;;;;;;;-146.27;100.00;48409.53;5094378;28;20091;-74
2023/03/09 08:06:11;;;;;;;27.63;13.85;;;;;;;-146.27;100.00;48411.53;5091411;28;20040;-74
2023/03/09 08:08:37;;;;;;;33.95;13.73;;;;;;;-146.27;100.00;48405.56;5091315;28;20024;-78
2023/03/09 08:11:03;;;;;;;29.05;14.25;;;;;;;-146.27;100.00;48365.72;5093844;28;20440;-77
2023/03/09 08:13:29;;;;;;;32.95;13.75;;;;;;;-146.27;100.00;48443.41;5080356;28;20028;-78
2023/03/09 08:15:54;;;;;;;27.45;12.48;;;;;;;-146.27;100.00;48437.44;5093855;28;20035;-71
2023/03/09 08:18:20;;;;;;;31.83;13.63;;;;;;;-146.27;100.00;48421.50;5089026;28;20467;-72
2023/03/09 08:20:45;;;;;;;28.15;14.40;;;;;;;-146.27;100.00;48433.44;5083340;28;20430;-72
2023/03/09 08:23:11;;;;;;;31.67;14.18;;;;;;;-146.27;100.00;48411.53;5091208;28;20109;-72
2023/03/09 08:25:37;;;;;;;29.02;13.32;;;;;;;-146.27;100.00;48365.72;5095034;28;20602;-73
2023/03/09 08:28:03;;;;;;;27.40;13.63;;;;;;;-146.27;100.00;48393.63;5088515;28;20020;-72
2023/03/09 08:30:29;;;;;;;28.27;13.80;;;;;;;-146.27;100.00;48415.53;5091587;28;20034;-72
2023/03/09 08:32:54;;;;;;;30.00;14.23;;;;;;;-146.27;100.00;48439.41;5086117;28;21586;-71
2023/03/09 08:35:22;;;;;;;28.15;13.70;;;;;;;-146.27;100.00;48407.56;5090763;28;20032;-73
2023/03/09 08:37:48;;;;;;;23.70;12.18;;;;;;;-146.27;100.00;48411.53;5092201;28;20471;-71
2023/03/09 08:40:15;;;;;;;30.33;14.30;;;;;;;-146.27;100.00;48413.53;5091471;28;20032;-72
2023/03/09 08:42:41;;;;;;;27.98;14.43;;;;;;;-146.27;100.00;48425.47;5093489;28;20059;-72
2023/03/09 08:45:07;;;;;;;32.83;14.27;;;;;;;-146.27;100.00;48379.66;5093541;28;20050;-72
2023/03/09 08:47:33;;;;;;;26.35;14.00;;;;;;;-146.27;100.00;48419.50;5092860;28;20480;-72
2023/03/09 08:49:59;;;;;;;28.27;13.73;;;;;;;-146.27;100.00;48413.53;5106019;28;20027;-70
2023/03/09 08:52:24;;;;;;;25.75;13.23;;;;;;;-146.27;100.00;48409.53;5094450;28;20032;-71
2023/03/09 08:54:50;;;;;;;28.48;12.98;;;;;;;-146.27;100.00;48375.69;5087598;28;20023;-72
2023/03/09 08:57:16;;;;;;;26.58;13.27;;;;;;;-146.27;100.00;48435.44;5087561;28;20467;-71
2023/03/09 08:59:42;;;;;;;29.50;14.43;;;;;;;-146.27;100.00;48417.50;5092639;28;20024;-71
2023/03/09 09:02:14;;;;;;;31.25;15.35;;;;;;;-146.27;100.00;48421.50;5094976;28;20085;-72
2023/03/09 09:04:41;;;;;;;31.30;13.70;;;;;;;-146.27;100.00;48437.44;5086406;28;20528;-71
2023/03/09 09:07:07;;;;;;;29.83;14.20;;;;;;;-146.27;100.00;48439.41;5088681;28;20067;-72
2023/03/09 09:09:33;;;;;;;28.80;13.93;;;;;;;-146.27;100.00;48399.59;5089549;28;20027;-72
2023/03/09 09:11:58;;;;;;;29.23;14.35;;;;;;;-146.27;100.00;48419.50;5092919;28;20016;-72
2023/03/09 09:14:24;;;;;;;29.38;14.52;;;;;;;-146.27;100.00;48393.63;5090103;28;20118;-72
2023/03/09 09:16:50;;;;;;;29.45;13.20;;;;;;;-146.27;100.00;48389.63;5092733;28;20024;-72
2023/03/09 09:19:16;;;;;;;30.20;13.60;;;;;;;-146.27;100.00;48375.69;5088959;28;20032;-71
2023/03/09 09:21:42;;;;;;;28.63;12.93;;;;;;;-146.27;100.00;48409.53;5087626;28;21928;-71
2023/03/09 09:24:07;;;;;;;26.27;13.02;;;;;;;-146.27;100.00;48399.59;5092845;28;20108;-72
2023/03/09 09:26:33;;;;;;;26.40;12.60;;;;;;;-146.27;100.00;48417.50;5089196;28;20065;-72
2023/03/09 09:29:01;;;;;;;24.70;13.35;;;;;;;-146.27;100.00;48407.56;5091374;28;20036;-71
2023/03/09 09:31:27;;;;;;;26.42;13.27;;;;;;;-146.27;100.00;48397.59;5084313;28;20149;-72
2023/03/09 09:33:52;;;;;;;26.85;12.98;;;;;;;-146.27;100.00;48393.63;5074386;28;20528;-72
2023/03/09 09:36:19;;;;;;;27.25;12.75;;;;;;;-146.27;100.00;48419.50;5078592;28;20051;-72
2023/03/09 09:38:45;;;;;;;26.58;13.13;;;;;;;-146.27;100.00;48375.69;5076916;28;20028;-72
2023/03/09 09:41:15;;;;;;;30.20;13.02;;;;;;;-146.27;100.00;48395.59;5090429;28;20031;-73
2023/03/09 09:43:42;;;;;;;28.52;14.65;;;;;;;-146.27;100.00;48391.63;5081391;28;20127;-70
2023/03/09 09:46:12;;;;;;;29.88;13.20;;;;;;;-146.27;100.00;48431.47;5088137;28;20399;-72
2023/03/09 09:48:40;;;;;;;26.25;13.40;;;;;;;-146.27;100.00;48403.56;5076506;28;20423;-72
2023/03/09 09:51:39;;;;;;;28.60;13.93;;;;;;;-146.27;100.00;48425.47;5071149;28;20395;-72
2023/03/09 09:54:20;;;;;;;24.83;13.80;;;;;;;-146.27;100.00;48411.53;5073014;28;20550;-72
2023/03/09 09:56:59;;;;;;;26.38;13.27;;;;;;;-146.27;100.00;48407.56;5073153;28;20032;-71
2023/03/09 09:59:30;;;;;;;26.73;13.80;;;;;;;-146.27;100.00;48407.56;5069990;28;20495;-71
2023/03/09 10:02:00;;;;;;;28.65;13.75;;;;;;;-146.27;100.00;48373.69;5074052;28;20097;-71
2023/03/09 10:04:35;;;;;;;32.63;14.93;;;;;;;-146.27;100.00;48401.56;5077881;28;20021;-71
2023/03/09 10:07:13;;;;;;;28.13;13.13;;;;;;;-146.27;100.00;48413.53;5071133;28;20178;-71
2023/03/09 10:09:41;;;;;;;32.35;15.15;;;;;;;-146.27;100.00;48391.63;5075189;28;20020;-71
2023/03/09 10:12:12;;;;;;;27.20;14.07;;;;;;;-146.27;100.00;48401.56;5069885;28;20032;-72
2023/03/09 10:14:40;;;;;;;28.08;13.60;;;;;;;-146.27;100.00;48379.66;5072305;28;20035;-71
2023/03/09 10:17:11;;;;;;;30.05;15.02;;;;;;;-146.27;100.00;48355.78;5074436;28;20024;-72
2023/03/09 10:19:39;;;;;;;30.55;14.15;;;;;;;-146.27;100.00;48399.59;5084948;28;20416;-71
2023/03/09 10:22:16;;;;;;;31.50;14.05;;;;;;;-146.27;100.00;48403.56;5097540;28;20078;-72
2023/03/09 10:24:44;;;;;;;30.73;14.60;;;;;;;-146.27;100.00;48391.63;5088402;28;20360;-71
2023/03/09 10:27:19;;;;;;;29.48;14.23;;;;;;;-146.27;100.00;48399.59;5079548;28;20032;-72
2023/03/09 10:29:56;;;;;;;29.83;14.38;;;;;;;-146.27;100.00;48381.66;5079298;28;20460;-71
2023/03/09 10:32:33;;;;;;;27.05;14.43;;;;;;;-146.27;100.00;48375.69;5074928;28;20534;-72
2023/03/09 10:35:19;;;;;;;29.27;14.43;;;;;;;-146.27;100.00;48383.66;5074763;28;20483;-72
2023/03/09 10:37:46;;;;;;;30.60;14.45;;;;;;;-146.27;100.00;48387.63;5075037;28;20063;-72
2023/03/09 10:40:20;;;;;;;30.85;15.40;;;;;;;-146.27;100.00;48391.63;5075194;28;20024;-71
2023/03/09 10:42:45;;;;;;;30.85;16.65;;;;;;;-146.27;100.00;48371.69;5082106;28;20028;-71
2023/03/09 10:45:43;;;;;;;29.85;15.75;;;;;;;-146.27;100.00;48409.53;5076381;28;20024;-71
2023/03/09 10:48:19;;;;;;;26.55;13.23;;;;;;;-146.27;100.00;48363.75;5028867;28;20131;-71
2023/03/09 10:51:02;;;;;;;30.92;15.40;;;;;;;-146.27;100.00;48421.50;5106541;28;20024;-71
2023/03/09 10:53:31;;;;;;;33.50;13.98;;;;;;;-146.27;100.00;48393.63;5097797;28;20089;-72
2023/03/09 10:56:05;;;;;;;34.03;16.13;;;;;;;-146.27;100.00;48403.56;5095003;28;20023;-71